Craig, NE (68019)

8:39 PM CDT on September 19, 2019 (GMT -0500)
Craig | | Change Station
Active Advisory: Flood Warning

Elev 1388 ft 41.75 °N, 96.44 °W | Updated 6 seconds ago

Clear
Clear
75.2 °F
Feels Like 75 °F
N
5.1
Wind Variable Wind from SSE
Gusts 5.8 mph

Today
High -- | Low -- °F
--% Chance of Precip.
Yesterday
High -- | Low -- °F
Precip. -- in
Pressure 29.89 in
Visibility 10.0 miles
Clouds Clear
Heat Index 75 °F
Dew Point 71 °F
Humidity 88%
Rainfall 1.24 in
Snow Depth Not available.
7:09 AM 7:28 PM
Waning Gibbous, 71% visible
METAR KTQE 200054Z AUTO 13006KT 10SM CLR 24/22 A2992 RMK AO2 SLP121 T02440217
Pressure 29.89 in
Visibility 10.0 miles
Clouds Clear
Heat Index 75 °F
Dew Point 71 °F
Humidity 88%
Rainfall 1.24 in
Snow Depth Not available.
7:09 AM 7:28 PM
Waning Gibbous, 71% visible
METAR KTQE 200054Z AUTO 13006KT 10SM CLR 24/22 A2992 RMK AO2 SLP121 T02440217

Get Your Daily Forecast Email!

Thanks for signing up!

Be on the lookout for a verification email in your inbox.

You'll start receiving severe weather alerts in your inbox..

×

10-Day Weather Forecast

Almanac

Astronomy

Sep. 19, 2019 Rise Set
Actual Time
Civil Twilight
Nautical Twilight
Astronomical Twilight
Moon
Length of Visible Light
Length of Day
Tomorrow will be .
, % of the Moon is Illuminated

Today's Extremes

State Highs State Lows

Community

WunderPhotos

Category 6

Welcome to Category 6. This is the collective home for Weather Underground's featured writeups by Dr. Jeff Masters (right), Bob Henson (left), Chris Burt, and other regular contributors.

Nearby

Air Quality

  Air Quality AQ Index Pollutant
Not available.

Snow Depth

Station Depth Elevation

Earthquake Activity

City Distance Mag. Time & Date
Minimum magnitude displayed is 2.5.

Coastal Water Temperatures

Place Temperature

Stations

Nearby Weather Stations

Station Location Temp. Windchill Dew Point Humidity Wind Precip. Elev Updated Type
                   

Watches & Warnings

Flood Warning
Issued: 10:15 AM CDT Sep. 19, 2019 – National Weather Service

The Flood Warning continues for
the Missouri River at Decatur.
* At 10:00 am Thursday the stage was 36.3 feet... or 1.3 feet above
flood stage.
* Flood stage is 35.0 feet.
* Minor flooding is occurring and minor flooding is forecast.
* Forecast... the river will continue rising to near 36.7 feet by
after late tonight. The river will fall below flood stage
early Tuesday afternoon.



Lat... Lon 4228 9643 4228 9610 4203 9594 4180 9595
      4180 9624